Time;durP1;ratioP1;P1;durP2;ratioP2;P2;SDS_P1;SDS_P2;PMS_P1;PMS_P2;Temp;Humidity;BMP_temperature;BMP_pressure;BME280_temperature;BME280_humidity;BME280_pressure;Samples;Min_cycle;Max_cycle;Signal;HPM_P1;HPM_P2
2022/08/22 00:01:53;;;;;;;1.33;0.60;;;;;;;24.51;45.44;101620.94;4938633;29;20076;-42
2022/08/22 00:04:29;;;;;;;1.13;0.60;;;;;;;24.50;45.07;101607.50;4928078;29;20058;-44
2022/08/22 00:07:15;;;;;;;1.33;0.50;;;;;;;24.48;45.25;101612.31;4928179;29;20028;-43
2022/08/22 00:10:08;;;;;;;1.77;0.50;;;;;;;24.48;45.31;101615.88;4943944;29;20047;-44
2022/08/22 00:12:42;;;;;;;0.93;0.50;;;;;;;24.33;45.42;101588.66;4938112;29;20161;-45
2022/08/22 00:15:12;;;;;;;1.88;1.08;;;;;;;24.47;45.31;101616.91;4927899;29;20036;-44
2022/08/22 00:17:49;;;;;;;0.88;0.65;;;;;;;24.47;45.09;101608.75;4927779;29;20038;-44
2022/08/22 00:20:36;;;;;;;0.82;0.80;;;;;;;24.48;45.28;101615.03;4928084;29;20078;-44
2022/08/22 00:23:09;;;;;;;1.30;0.82;;;;;;;24.46;45.24;101611.63;4927942;29;20067;-43
2022/08/22 00:25:49;;;;;;;1.08;0.60;;;;;;;24.46;45.29;101619.78;4928175;29;20050;-43
2022/08/22 00:28:18;;;;;;;1.17;0.55;;;;;;;24.44;45.54;101618.13;4926684;29;20032;-44
2022/08/22 00:31:15;;;;;;;0.90;0.60;;;;;;;24.44;45.25;101611.84;4906157;29;20024;-43
2022/08/22 00:33:44;;;;;;;0.77;0.50;;;;;;;24.42;45.10;101612.03;4910277;29;20048;-45
2022/08/22 00:36:29;;;;;;;1.60;0.68;;;;;;;24.30;45.08;101593.59;4984023;28;20038;-45
2022/08/22 00:39:05;;;;;;;1.33;0.70;;;;;;;24.41;45.34;101618.47;5006340;28;20037;-43
2022/08/22 00:41:52;;;;;;;1.00;0.50;;;;;;;24.41;45.17;101618.47;5037821;28;20017;-45
2022/08/22 00:44:34;;;;;;;1.02;0.60;;;;;;;24.40;45.30;101613.25;5037426;28;20155;-43
2022/08/22 00:47:41;;;;;;;0.63;0.50;;;;;;;24.40;45.19;101614.09;5013707;28;20029;-42
2022/08/22 00:50:39;;;;;;;1.08;0.70;;;;;;;24.38;45.25;101613.44;5029777;28;20060;-42
2022/08/22 00:53:07;;;;;;;1.13;0.53;;;;;;;24.37;45.21;101611.72;4993412;28;20490;-42
2022/08/22 00:55:50;;;;;;;1.10;0.60;;;;;;;24.16;45.44;101579.00;5036555;28;20279;-43
2022/08/22 00:58:34;;;;;;;0.70;0.45;;;;;;;24.36;45.28;101606.47;5008688;28;20080;-43
2022/08/22 01:01:05;;;;;;;1.00;0.70;;;;;;;24.36;45.39;101614.63;4997273;28;20094;-43
2022/08/22 01:03:42;;;;;;;0.80;0.47;;;;;;;24.36;45.45;101611.91;4995613;28;20028;-45
2022/08/22 01:06:33;;;;;;;0.73;0.50;;;;;;;24.35;45.33;101616.50;5021047;28;20025;-44
2022/08/22 01:09:16;;;;;;;1.20;0.50;;;;;;;24.35;45.20;101616.50;5005812;28;20055;-44
2022/08/22 01:11:54;;;;;;;1.10;0.70;;;;;;;24.34;45.26;101614.81;5023021;28;20028;-43
2022/08/22 01:14:36;;;;;;;0.77;0.40;;;;;;;24.33;45.21;101623.13;5015511;28;20017;-43
2022/08/22 01:17:19;;;;;;;1.10;0.50;;;;;;;24.32;45.33;101622.31;5006855;28;20765;-44
2022/08/22 01:20:06;;;;;;;0.85;0.50;;;;;;;24.31;45.46;101626.06;5005745;28;20083;-43
2022/08/22 01:22:53;;;;;;;0.85;0.57;;;;;;;24.32;45.28;101624.19;5037735;28;20025;-44
2022/08/22 01:25:46;;;;;;;0.85;0.60;;;;;;;24.31;45.34;101622.50;5037311;28;20029;-44
2022/08/22 01:28:39;;;;;;;1.17;0.50;;;;;;;24.30;45.32;101620.78;5032375;28;20085;-43
2022/08/22 01:31:37;;;;;;;1.00;0.50;;;;;;;24.29;45.20;101627.25;5040998;28;20044;-43
2022/08/22 01:34:24;;;;;;;1.02;0.57;;;;;;;24.27;45.49;101619.31;5036715;28;20049;-44
2022/08/22 01:37:04;;;;;;;0.73;0.40;;;;;;;24.27;45.41;101624.75;5023265;28;20049;-45
2022/08/22 01:40:00;;;;;;;0.73;0.55;;;;;;;24.28;45.44;101628.31;5023267;28;20056;-46
2022/08/22 01:43:11;;;;;;;1.05;0.50;;;;;;;24.26;45.38;101624.94;5026332;28;20052;-46
2022/08/22 01:45:49;;;;;;;0.73;0.60;;;;;;;24.11;45.27;101605.91;4940640;29;20522;-44
2022/08/22 01:48:20;;;;;;;0.73;0.45;;;;;;;24.23;45.23;101628.03;4916150;29;20050;-43
2022/08/22 01:50:52;;;;;;;0.90;0.60;;;;;;;24.23;45.32;101625.31;4913368;29;20032;-44
2022/08/22 01:53:28;;;;;;;0.68;0.55;;;;;;;24.24;45.75;101629.69;4934661;29;20586;-42
2022/08/22 01:55:58;;;;;;;1.02;0.70;;;;;;;24.22;45.52;101629.91;4921030;29;20039;-43
2022/08/22 01:58:26;;;;;;;1.00;0.75;;;;;;;24.23;45.56;101630.75;4932498;29;20099;-43
2022/08/22 02:01:36;;;;;;;0.68;0.40;;;;;;;24.23;45.65;101626.16;4941315;29;20053;-42
2022/08/22 02:04:10;;;;;;;0.88;0.57;;;;;;;24.21;45.31;101625.47;4930896;29;20135;-45
2022/08/22 02:06:46;;;;;;;0.80;0.55;;;;;;;24.21;45.28;101630.91;4913627;29;20059;-42
2022/08/22 02:09:29;;;;;;;1.10;0.50;;;;;;;24.04;45.60;101599.50;4930232;29;20024;-43
2022/08/22 02:12:09;;;;;;;1.02;0.70;;;;;;;24.16;45.70;101617.03;4915905;29;20040;-43
2022/08/22 02:14:41;;;;;;;1.13;0.50;;;;;;;24.19;45.45;101628.38;4929480;29;20071;-43
2022/08/22 02:17:30;;;;;;;0.80;0.43;;;;;;;24.17;45.60;101622.31;4920727;29;20117;-43
2022/08/22 02:20:14;;;;;;;0.98;0.60;;;;;;;24.17;45.54;101619.59;4977423;28;20042;-42
2022/08/22 02:22:54;;;;;;;0.50;0.50;;;;;;;24.17;45.56;101618.72;5017632;28;20387;-43
2022/08/22 02:25:27;;;;;;;1.25;0.50;;;;;;;24.02;45.51;101593.44;5032454;28;20018;-46
2022/08/22 02:28:08;;;;;;;0.73;0.63;;;;;;;24.17;45.32;101616.00;5015576;28;20022;-43
2022/08/22 02:30:48;;;;;;;1.02;0.57;;;;;;;24.16;45.32;101617.88;5014851;28;21081;-43
2022/08/22 02:33:45;;;;;;;0.75;0.45;;;;;;;24.15;45.39;101615.38;5013141;28;20037;-43
2022/08/22 02:36:22;;;;;;;1.10;0.70;;;;;;;24.14;45.49;101611.81;5016321;28;20065;-44
2022/08/22 02:39:20;;;;;;;1.27;0.60;;;;;;;24.14;45.58;101610.97;5022606;28;20589;-45
2022/08/22 02:42:00;;;;;;;0.90;0.60;;;;;;;24.13;45.65;101607.41;5008226;28;20030;-44
2022/08/22 02:44:33;;;;;;;0.60;0.35;;;;;;;24.13;45.31;101609.28;5008324;28;20392;-46
2022/08/22 02:47:03;;;;;;;0.73;0.50;;;;;;;24.12;45.32;101608.41;5007594;28;20033;-45
2022/08/22 02:49:42;;;;;;;1.35;0.68;;;;;;;24.12;45.67;101613.00;5007825;28;20013;-42
2022/08/22 02:52:19;;;;;;;0.82;0.52;;;;;;;24.10;45.53;101606.94;5008191;28;20029;-41
2022/08/22 02:54:44;;;;;;;1.15;0.60;;;;;;;24.11;45.50;101611.31;5007927;28;20113;-41
2022/08/22 02:57:26;;;;;;;1.02;0.60;;;;;;;24.10;45.32;101610.50;5039589;28;20067;-42
2022/08/22 03:00:12;;;;;;;0.68;0.43;;;;;;;24.10;45.36;101606.94;5007915;28;20021;-43
2022/08/22 03:02:45;;;;;;;0.57;0.50;;;;;;;24.09;45.65;101608.81;5007660;28;20022;-43
2022/08/22 03:05:25;;;;;;;1.25;0.57;;;;;;;24.10;45.65;101598.78;5019394;28;20084;-42
2022/08/22 03:08:15;;;;;;;1.00;0.50;;;;;;;24.09;45.67;101603.38;5014017;28;20026;-43
2022/08/22 03:10:47;;;;;;;0.90;0.40;;;;;;;24.08;45.52;101595.38;5038973;28;20043;-43
2022/08/22 03:13:24;;;;;;;0.43;0.35;;;;;;;24.07;45.40;101602.69;5025622;28;20030;-43
2022/08/22 03:15:59;;;;;;;0.73;0.43;;;;;;;24.07;45.34;101608.13;5020832;28;20093;-43
2022/08/22 03:18:29;;;;;;;0.90;0.47;;;;;;;24.07;45.59;101599.16;5015301;28;20034;-44
2022/08/22 03:21:14;;;;;;;0.65;0.50;;;;;;;24.06;45.48;101600.19;5031063;28;20034;-43
2022/08/22 03:23:45;;;;;;;1.00;0.50;;;;;;;24.04;45.69;101589.47;5018338;28;20461;-42
2022/08/22 03:26:17;;;;;;;0.50;0.50;;;;;;;24.05;45.48;101587.63;5021333;28;20041;-43
2022/08/22 03:28:52;;;;;;;1.30;0.50;;;;;;;24.05;45.41;101595.78;5015782;28;20021;-43
2022/08/22 03:31:21;;;;;;;0.90;0.57;;;;;;;24.04;45.60;101596.78;4996275;28;20525;-43
2022/08/22 03:34:17;;;;;;;0.50;0.40;;;;;;;24.04;45.36;101594.91;5005979;28;20037;-43
2022/08/22 03:37:14;;;;;;;1.05;0.82;;;;;;;24.03;45.69;101586.97;5039159;28;20022;-43
2022/08/22 03:39:57;;;;;;;0.70;0.40;;;;;;;24.01;45.64;101586.31;5025217;28;20029;-43
2022/08/22 03:42:41;;;;;;;0.65;0.50;;;;;;;24.02;45.39;101579.84;5038897;28;20037;-43
2022/08/22 03:45:25;;;;;;;1.73;0.60;;;;;;;23.87;45.32;101564.41;5038724;28;20013;-42
2022/08/22 03:48:09;;;;;;;0.60;0.50;;;;;;;24.00;45.49;101585.47;5032279;28;20041;-42
2022/08/22 03:51:02;;;;;;;0.95;0.70;;;;;;;24.01;45.46;101580.88;5012837;28;20534;-43
2022/08/22 03:53:57;;;;;;;0.77;0.50;;;;;;;23.98;45.65;101571.22;5032107;28;20113;-43
2022/08/22 03:56:30;;;;;;;0.75;0.65;;;;;;;23.97;45.64;101572.25;5015676;28;20534;-43
2022/08/22 03:59:17;;;;;;;1.00;0.50;;;;;;;23.97;45.45;101574.97;5025221;28;20041;-44
2022/08/22 04:01:57;;;;;;;0.47;0.43;;;;;;;23.97;45.58;101572.25;5023914;28;20034;-45
2022/08/22 04:04:34;;;;;;;0.70;0.50;;;;;;;23.96;45.52;101567.88;5024273;28;20024;-43
2022/08/22 04:07:19;;;;;;;1.35;1.00;;;;;;;23.86;45.79;101551.81;5006717;28;20018;-44
2022/08/22 04:10:06;;;;;;;0.55;0.40;;;;;;;23.95;45.74;101575.16;5012519;28;20028;-43
2022/08/22 04:13:14;;;;;;;1.17;0.70;;;;;;;23.95;45.44;101577.03;5024113;28;20022;-44
2022/08/22 04:15:55;;;;;;;0.95;0.40;;;;;;;23.91;45.74;101567.56;5023849;28;20108;-43
2022/08/22 04:18:51;;;;;;;0.50;0.47;;;;;;;23.93;45.50;101570.94;5024373;28;20044;-43
2022/08/22 04:21:26;;;;;;;0.65;0.57;;;;;;;23.93;45.67;101574.50;5010305;28;20052;-43
2022/08/22 04:24:13;;;;;;;1.10;0.60;;;;;;;23.91;45.57;101584.69;5033383;28;20434;-45
2022/08/22 04:27:14;;;;;;;0.88;0.50;;;;;;;23.91;45.44;101583.84;5020400;28;20030;-44
2022/08/22 04:29:47;;;;;;;1.15;0.60;;;;;;;23.91;45.63;101583.84;5037823;28;20017;-43
2022/08/22 04:32:24;;;;;;;1.05;0.60;;;;;;;23.90;45.79;101579.47;5009747;28;20021;-42
2022/08/22 04:34:54;;;;;;;0.75;0.55;;;;;;;23.91;45.50;101587.41;5019411;28;20029;-43
2022/08/22 04:37:33;;;;;;;0.63;0.40;;;;;;;23.78;45.68;101567.34;5004055;28;20065;-45
2022/08/22 04:40:00;;;;;;;;;;;;;;;23.87;45.79;101590.69;5016912;28;20022;-46
2022/08/22 04:42:35;;;;;;;1.38;0.50;;;;;;;23.89;45.69;101594.06;5019905;28;19913;-42
2022/08/22 04:45:18;;;;;;;0.75;0.50;;;;;;;23.87;45.52;101594.28;4989881;28;20021;-45
2022/08/22 04:47:48;;;;;;;1.42;0.45;;;;;;;23.88;45.70;101601.38;4992850;28;20025;-45
2022/08/22 04:50:44;;;;;;;0.93;0.60;;;;;;;23.88;45.63;101606.81;5019788;28;20505;-44
2022/08/22 04:53:47;;;;;;;0.82;0.45;;;;;;;23.87;45.78;101602.41;4981977;28;20149;-42
2022/08/22 04:56:50;;;;;;;1.00;0.68;;;;;;;23.86;45.77;101603.44;5030878;28;20029;-43
2022/08/22 04:59:17;;;;;;;0.50;0.43;;;;;;;23.85;45.85;101609.91;5011743;28;20081;-43
2022/08/22 05:01:47;;;;;;;0.95;0.45;;;;;;;23.85;45.60;101603.63;5014644;28;20104;-42
2022/08/22 05:04:20;;;;;;;0.98;0.70;;;;;;;23.85;45.84;101612.59;5008406;28;20017;-42
2022/08/22 05:06:50;;;;;;;0.73;0.47;;;;;;;23.84;45.84;101605.50;5014254;28;20030;-45
2022/08/22 05:09:19;;;;;;;0.77;0.60;;;;;;;23.85;45.73;101609.06;5019930;28;20036;-44
2022/08/22 05:11:47;;;;;;;1.55;0.50;;;;;;;23.81;45.72;101602.31;5014338;28;20053;-43
2022/08/22 05:14:38;;;;;;;0.75;0.47;;;;;;;23.85;45.70;101607.19;4999878;28;20028;-43
2022/08/22 05:17:06;;;;;;;0.75;0.50;;;;;;;23.85;45.73;101609.06;5013754;28;20034;-45
2022/08/22 05:19:37;;;;;;;3.08;0.43;;;;;;;23.84;45.61;101610.09;5010984;28;20018;-42
2022/08/22 05:22:04;;;;;;;0.40;0.32;;;;;;;23.85;45.88;101609.06;5005782;28;20018;-43
2022/08/22 05:24:38;;;;;;;0.98;0.57;;;;;;;23.85;45.88;101617.19;5012205;28;20026;-44
2022/08/22 05:27:16;;;;;;;0.70;0.50;;;;;;;23.68;45.74;101592.91;5015824;28;20033;-43
2022/08/22 05:29:45;;;;;;;1.52;0.77;;;;;;;23.78;45.70;101611.66;5015373;28;20503;-44
2022/08/22 05:32:18;;;;;;;0.90;0.40;;;;;;;23.85;45.80;101628.91;5016725;28;20026;-44
2022/08/22 05:34:44;;;;;;;0.73;0.50;;;;;;;23.84;46.05;101623.66;5005161;28;20376;-43
2022/08/22 05:37:16;;;;;;;0.57;0.40;;;;;;;23.84;45.82;101629.94;5024307;28;20033;-43
2022/08/22 05:39:46;;;;;;;0.82;0.50;;;;;;;23.85;45.94;101633.50;4996498;28;20079;-45
2022/08/22 05:42:16;;;;;;;0.80;0.50;;;;;;;23.85;46.08;101631.63;5029681;28;20022;-44
2022/08/22 05:44:42;;;;;;;1.00;0.70;;;;;;;23.85;46.10;101628.06;5006953;28;20045;-46
2022/08/22 05:47:26;;;;;;;0.50;0.40;;;;;;;23.86;45.96;101625.16;5024488;28;20029;-43
2022/08/22 05:49:59;;;;;;;0.65;0.40;;;;;;;23.85;45.96;101625.34;5005651;28;20030;-43
2022/08/22 05:52:46;;;;;;;0.60;0.40;;;;;;;23.86;46.03;101636.00;5009807;28;20073;-43
2022/08/22 05:55:24;;;;;;;0.90;0.60;;;;;;;23.72;45.98;101620.53;5033241;28;20064;-45
2022/08/22 05:58:15;;;;;;;1.20;0.60;;;;;;;23.79;46.06;101623.34;5020718;28;20021;-45
2022/08/22 06:00:44;;;;;;;0.70;0.40;;;;;;;23.67;46.28;101603.97;5009738;28;20056;-44
2022/08/22 06:03:15;;;;;;;1.73;0.52;;;;;;;23.85;46.33;101637.06;5011024;28;20030;-48
2022/08/22 06:05:45;;;;;;;0.93;0.52;;;;;;;23.72;46.01;101614.28;5013971;28;20014;-44
2022/08/22 06:08:25;;;;;;;0.77;0.57;;;;;;;23.86;46.24;101641.44;5028242;28;20109;-44
2022/08/22 06:10:53;;;;;;;1.48;0.52;;;;;;;23.86;46.07;101644.16;5012032;28;20021;-43
2022/08/22 06:13:36;;;;;;;0.47;0.40;;;;;;;23.76;46.27;101630.00;5009680;28;20014;-43
2022/08/22 06:16:07;;;;;;;1.23;0.70;;;;;;;23.87;46.17;101639.56;5006401;28;20034;-43
2022/08/22 06:18:34;;;;;;;0.88;0.52;;;;;;;23.85;46.20;101642.47;5028570;28;20026;-43
2022/08/22 06:21:03;;;;;;;0.82;0.50;;;;;;;23.88;45.95;101647.56;5013836;28;20025;-43
2022/08/22 06:23:35;;;;;;;0.82;0.68;;;;;;;23.76;46.15;101630.00;5013719;28;20018;-42
2022/08/22 06:26:04;;;;;;;0.75;0.40;;;;;;;23.75;46.31;101635.63;5012945;28;20031;-43
2022/08/22 06:28:33;;;;;;;1.10;0.50;;;;;;;23.90;46.37;101655.50;5009959;28;20029;-43
2022/08/22 06:31:01;;;;;;;2.55;0.77;;;;;;;23.91;46.37;101654.47;5006041;28;20036;-44
2022/08/22 06:33:28;;;;;;;0.43;0.38;;;;;;;23.91;46.37;101651.75;5014054;28;20034;-43
2022/08/22 06:36:29;;;;;;;1.02;0.45;;;;;;;23.76;46.25;101621.88;5009974;28;20101;-45
2022/08/22 06:39:13;;;;;;;1.13;0.63;;;;;;;23.93;46.22;101650.56;5014247;28;20032;-43
2022/08/22 06:42:08;;;;;;;1.15;0.50;;;;;;;23.95;46.39;101653.06;5025997;28;20026;-44
2022/08/22 06:44:40;;;;;;;0.52;0.40;;;;;;;23.80;46.53;101633.22;5026278;28;20037;-43
2022/08/22 06:47:09;;;;;;;0.80;0.70;;;;;;;23.96;46.39;101660.22;5008561;28;20056;-42
2022/08/22 06:49:35;;;;;;;0.98;0.57;;;;;;;23.82;46.23;101631.97;5021307;28;20021;-43
2022/08/22 06:52:05;;;;;;;0.90;0.70;;;;;;;23.98;46.07;101655.44;5017203;28;20188;-43
2022/08/22 06:54:35;;;;;;;1.38;0.77;;;;;;;23.85;46.17;101647.91;5007630;28;20061;-42
2022/08/22 06:57:03;;;;;;;1.25;0.90;;;;;;;23.98;46.21;101662.75;5020246;28;20021;-43
2022/08/22 06:59:29;;;;;;;0.83;0.60;;;;;;;24.01;46.35;101674.09;5009411;28;20028;-45
2022/08/22 07:02:02;;;;;;;0.70;0.60;;;;;;;24.01;46.26;101674.09;5011142;28;20257;-42
2022/08/22 07:04:29;;;;;;;0.80;0.60;;;;;;;23.81;46.21;101641.16;5009670;28;20030;-42
2022/08/22 07:06:56;;;;;;;2.20;0.70;;;;;;;24.03;46.28;101666.59;5010265;28;20078;-44
2022/08/22 07:09:21;;;;;;;0.65;0.57;;;;;;;24.04;46.08;101662.84;5014354;28;20045;-41
2022/08/22 07:11:47;;;;;;;0.73;0.47;;;;;;;23.89;46.38;101632.94;5010787;28;20051;-41
2022/08/22 07:14:16;;;;;;;0.82;0.52;;;;;;;24.05;46.27;101656.38;5024550;28;20497;-42
2022/08/22 07:16:46;;;;;;;0.63;0.52;;;;;;;24.06;46.25;101660.78;5014458;28;20043;-40
2022/08/22 07:19:25;;;;;;;0.50;0.43;;;;;;;24.09;46.33;101659.59;4993293;28;20030;-43
2022/08/22 07:21:50;;;;;;;1.23;0.60;;;;;;;24.06;46.30;101659.94;5020398;28;20029;-44
2022/08/22 07:24:20;;;;;;;1.02;0.80;;;;;;;23.95;46.42;101637.63;5030944;28;20033;-43
2022/08/22 07:27:07;;;;;;;0.88;0.60;;;;;;;24.14;46.25;101671.56;5034348;28;20076;-46
2022/08/22 07:29:48;;;;;;;1.60;0.52;;;;;;;24.17;46.64;101662.19;5017262;28;20057;-44
2022/08/22 07:32:21;;;;;;;1.80;1.13;;;;;;;24.21;46.37;101671.66;5033584;28;20033;-41
2022/08/22 07:34:52;;;;;;;1.23;0.50;;;;;;;24.23;46.39;101656.03;5015679;28;20021;-42
2022/08/22 07:37:27;;;;;;;1.23;0.50;;;;;;;24.28;46.25;101660.91;5020200;28;20018;-42
2022/08/22 07:40:05;;;;;;;1.05;0.60;;;;;;;24.31;46.37;101669.53;5007993;28;20033;-44
2022/08/22 07:42:44;;;;;;;1.50;0.60;;;;;;;24.33;46.14;101674.78;5010343;28;20022;-41
2022/08/22 07:45:13;;;;;;;1.20;0.50;;;;;;;24.21;46.43;101655.34;5025688;28;20089;-40
2022/08/22 07:47:57;;;;;;;;;;;;;;;24.33;46.49;101670.19;5011990;28;20040;-42
2022/08/22 07:50:27;;;;;;;2.15;0.55;;;;;;;24.34;46.27;101662.88;5034788;28;19949;-44
2022/08/22 07:52:57;;;;;;;1.50;1.00;;;;;;;24.19;46.46;101636.53;5008310;28;20050;-44
2022/08/22 07:55:25;;;;;;;1.52;0.60;;;;;;;24.35;46.56;101665.41;5008503;28;20041;-49
2022/08/22 07:58:02;;;;;;;1.27;0.68;;;;;;;24.26;46.62;101641.25;5006262;28;20041;-45
2022/08/22 08:00:30;;;;;;;1.67;1.58;;;;;;;24.39;46.67;101668.66;5000420;28;20030;-43
2022/08/22 08:02:58;;;;;;;2.10;1.00;;;;;;;24.27;46.60;101646.47;5011695;28;20037;-46
2022/08/22 08:05:26;;;;;;;2.13;1.00;;;;;;;24.41;46.62;101672.84;5019632;28;20037;-53
2022/08/22 08:07:53;;;;;;;2.35;0.98;;;;;;;24.42;46.98;101668.25;5037727;28;20053;-57
2022/08/22 08:10:24;;;;;;;1.23;0.80;;;;;;;24.43;46.55;101659.94;5017072;28;20022;-50
2022/08/22 08:12:52;;;;;;;1.42;0.70;;;;;;;24.46;46.73;101658.69;5016310;28;20021;-46
2022/08/22 08:15:21;;;;;;;1.73;0.70;;;;;;;24.47;46.71;101654.09;5033221;28;20026;-48
2022/08/22 08:17:53;;;;;;;1.08;0.60;;;;;;;24.48;46.77;101645.78;5015525;28;20044;-49
2022/08/22 08:20:21;;;;;;;1.10;0.80;;;;;;;24.49;46.83;101647.44;5017916;28;20047;-48
2022/08/22 08:22:47;;;;;;;1.02;0.52;;;;;;;24.48;46.68;101643.06;5034281;28;20052;-43
2022/08/22 08:25:22;;;;;;;0.75;0.68;;;;;;;24.40;46.69;101615.97;5035697;28;20032;-48
2022/08/22 08:30:38;;;;;;;1.17;0.75;;;;;;;24.58;46.90;101629.16;5010843;28;20048;-45
2022/08/22 08:33:05;;;;;;;1.48;0.77;;;;;;;24.46;46.96;101598.88;5004037;28;20026;-40
2022/08/22 08:35:35;;;;;;;1.20;0.93;;;;;;;24.72;46.90;101627.44;5015015;28;20048;-43
2022/08/22 08:38:07;;;;;;;2.05;0.80;;;;;;;24.80;46.80;101624.63;5018655;28;20031;-46
2022/08/22 08:40:32;;;;;;;1.50;0.90;;;;;;;24.95;46.70;101622.72;5011495;28;20024;-46
2022/08/22 08:43:26;;;;;;;1.77;1.10;;;;;;;25.09;46.71;101629.19;5033280;28;20390;-45
2022/08/22 08:45:55;;;;;;;1.85;1.10;;;;;;;25.24;46.23;101621.81;5011346;28;20064;-44
2022/08/22 08:48:42;;;;;;;1.52;0.80;;;;;;;25.27;46.01;101596.91;5012188;28;20025;-47
2022/08/22 08:51:16;;;;;;;1.52;0.80;;;;;;;25.42;45.63;101594.16;5031124;28;20025;-44
2022/08/22 08:54:01;;;;;;;1.67;0.75;;;;;;;25.59;45.31;101600.16;5010888;28;20506;-44
2022/08/22 08:56:34;;;;;;;1.77;0.90;;;;;;;25.73;45.02;101612.84;5011054;28;20052;-47
2022/08/22 08:59:34;;;;;;;2.05;0.80;;;;;;;25.82;44.70;101605.41;5036474;28;20033;-44
2022/08/22 09:02:11;;;;;;;3.95;1.30;;;;;;;25.85;44.56;101607.72;5031020;28;20026;-46
2022/08/22 09:04:52;;;;;;;2.75;1.15;;;;;;;25.89;44.49;101609.03;5034089;28;20026;-46
2022/08/22 09:07:40;;;;;;;2.80;1.10;;;;;;;25.98;44.08;101599.66;5034788;28;20089;-48
2022/08/22 09:10:27;;;;;;;1.15;0.82;;;;;;;26.08;43.95;101602.88;5018565;28;20028;-46
2022/08/22 09:12:53;;;;;;;2.05;0.90;;;;;;;26.04;44.08;101582.53;5013579;28;20025;-44
2022/08/22 09:15:33;;;;;;;1.73;1.00;;;;;;;26.13;43.48;101580.47;5034206;28;20091;-43
2022/08/22 09:18:27;;;;;;;1.70;0.90;;;;;;;26.36;43.57;101600.09;5015864;28;20009;-44
2022/08/22 09:21:21;;;;;;;1.65;0.90;;;;;;;26.44;43.21;101599.13;5036241;28;20029;-45
2022/08/22 09:24:05;;;;;;;2.35;0.85;;;;;;;26.50;43.17;101601.03;5033498;28;20026;-45
2022/08/22 09:26:46;;;;;;;1.70;1.00;;;;;;;26.54;42.89;101594.13;5021317;28;20065;-47
2022/08/22 09:29:32;;;;;;;1.25;0.63;;;;;;;26.57;42.63;101595.59;5040330;28;20384;-44
2022/08/22 09:32:09;;;;;;;2.40;0.70;;;;;;;26.62;42.65;101591.22;5033664;28;20040;-44
2022/08/22 09:34:52;;;;;;;1.98;0.80;;;;;;;26.66;42.24;101589.75;5033898;28;20254;-45
2022/08/22 09:37:21;;;;;;;1.50;0.70;;;;;;;26.67;42.27;101588.72;5013966;28;20037;-44
2022/08/22 09:40:18;;;;;;;2.92;0.82;;;;;;;26.70;42.30;101595.66;5019391;28;20505;-49
2022/08/22 09:43:15;;;;;;;1.75;0.85;;;;;;;26.71;42.15;101600.06;5005149;28;20037;-46
2022/08/22 09:45:51;;;;;;;1.23;0.70;;;;;;;26.70;42.15;101598.38;5036050;28;20029;-45
2022/08/22 09:48:26;;;;;;;1.23;0.70;;;;;;;26.53;42.08;101576.09;5018958;28;20032;-44
2022/08/22 09:51:29;;;;;;;1.27;0.93;;;;;;;26.65;42.01;101596.28;5038028;28;20068;-45
2022/08/22 09:54:09;;;;;;;1.27;0.88;;;;;;;26.67;42.05;101596.91;5036072;28;20072;-48
2022/08/22 09:56:38;;;;;;;1.80;0.73;;;;;;;26.71;42.02;101600.06;4997245;28;20036;-45
2022/08/22 09:59:19;;;;;;;0.98;0.60;;;;;;;26.64;41.95;101580.13;5003310;28;20034;-46
2022/08/22 10:01:56;;;;;;;1.52;0.88;;;;;;;26.81;41.89;101594.25;5036764;28;20501;-44
2022/08/22 10:04:29;;;;;;;1.75;0.77;;;;;;;26.85;41.89;101592.78;5014778;28;20041;-52
2022/08/22 10:07:05;;;;;;;1.58;0.60;;;;;;;26.97;41.59;101590.28;5018235;28;20026;-52
2022/08/22 10:09:43;;;;;;;3.00;1.08;;;;;;;27.00;41.50;101587.97;5016954;28;20112;-50
2022/08/22 10:12:10;;;;;;;0.80;0.57;;;;;;;27.01;41.25;101588.81;5037556;28;20061;-48
2022/08/22 10:15:09;;;;;;;1.90;0.70;;;;;;;27.02;41.39;101590.53;5019129;28;20037;-47
2022/08/22 10:17:39;;;;;;;0.65;0.50;;;;;;;26.82;41.30;101563.19;5014556;28;20038;-43
2022/08/22 10:20:12;;;;;;;1.55;0.68;;;;;;;26.91;41.34;101584.59;5037236;28;20026;-44
2022/08/22 10:23:14;;;;;;;1.40;1.08;;;;;;;26.92;41.34;101577.25;5017106;28;20116;-43
2022/08/22 10:25:53;;;;;;;1.00;0.80;;;;;;;26.85;41.34;101555.44;5017586;28;20621;-42
2022/08/22 10:28:30;;;;;;;2.22;0.75;;;;;;;26.95;41.35;101546.84;5002353;28;20029;-43
2022/08/22 10:31:28;;;;;;;1.90;0.68;;;;;;;27.01;41.00;101536.97;5000070;28;20511;-44
2022/08/22 10:34:02;;;;;;;1.30;0.68;;;;;;;27.10;40.94;101539.34;4994807;28;20053;-43
2022/08/22 10:36:33;;;;;;;1.80;0.80;;;;;;;27.32;40.67;101561.00;5017827;28;20025;-41
2022/08/22 10:38:59;;;;;;;1.83;1.10;;;;;;;27.35;40.94;101558.66;5020144;28;20502;-41
2022/08/22 10:41:37;;;;;;;1.85;0.80;;;;;;;27.28;40.56;101530.53;5011924;28;20112;-45
2022/08/22 10:44:11;;;;;;;2.20;0.70;;;;;;;27.51;40.86;101553.84;5009390;28;20119;-45
2022/08/22 10:46:48;;;;;;;3.40;0.70;;;;;;;27.62;40.40;101559.50;5028983;28;20032;-48
2022/08/22 10:49:33;;;;;;;1.92;1.02;;;;;;;27.61;40.53;101532.38;5005060;28;20026;-44
2022/08/22 10:52:21;;;;;;;2.05;0.88;;;;;;;27.77;40.38;101531.97;4995896;28;20517;-44
2022/08/22 10:54:51;;;;;;;1.42;0.80;;;;;;;27.92;39.87;101534.50;5030421;28;20052;-44
2022/08/22 10:57:25;;;;;;;2.00;0.80;;;;;;;28.21;40.06;101556.91;5017686;28;20127;-46
2022/08/22 10:59:57;;;;;;;1.58;0.70;;;;;;;28.27;39.82;101553.31;5041733;28;20093;-44
2022/08/22 11:02:37;;;;;;;1.23;0.50;;;;;;;28.29;39.31;101526.56;5031711;28;20087;-48
2022/08/22 11:05:18;;;;;;;1.88;0.90;;;;;;;28.40;39.05;101548.66;5003923;28;20049;-44
2022/08/22 11:08:09;;;;;;;2.00;0.70;;;;;;;28.30;39.47;101550.16;5022572;28;20031;-45
2022/08/22 11:11:06;;;;;;;0.95;0.60;;;;;;;28.20;39.56;101541.53;5018527;28;20023;-46
2022/08/22 11:13:43;;;;;;;1.17;0.75;;;;;;;28.05;39.52;101528.97;5040429;28;20021;-47
2022/08/22 11:16:14;;;;;;;0.77;0.60;;;;;;;27.84;39.43;101527.34;5021269;28;20024;-45
2022/08/22 11:19:00;;;;;;;1.63;0.70;;;;;;;27.76;39.94;101529.47;5026168;28;20065;-46
2022/08/22 11:21:34;;;;;;;1.10;0.68;;;;;;;27.61;39.95;101527.78;5032341;28;20040;-47
2022/08/22 11:24:15;;;;;;;2.17;0.95;;;;;;;27.50;40.06;101524.84;5012283;28;20091;-45
2022/08/22 11:26:46;;;;;;;1.92;0.77;;;;;;;27.26;40.39;101502.56;5025162;28;20018;-47
2022/08/22 11:29:20;;;;;;;1.58;0.63;;;;;;;27.25;40.70;101513.72;5005880;28;20094;-43
2022/08/22 11:31:52;;;;;;;1.40;0.95;;;;;;;27.24;40.84;101520.25;5007883;28;20050;-44
2022/08/22 11:34:24;;;;;;;2.10;1.00;;;;;;;27.17;40.95;101514.75;5008384;28;20499;-44
2022/08/22 11:36:52;;;;;;;1.20;0.75;;;;;;;27.10;41.07;101512.03;5009396;28;20037;-48
2022/08/22 11:39:37;;;;;;;1.02;0.70;;;;;;;27.12;41.14;101512.66;4996995;28;20034;-49
2022/08/22 11:42:10;;;;;;;1.33;0.80;;;;;;;27.09;41.41;101518.53;5021373;28;20029;-56
2022/08/22 11:44:43;;;;;;;2.03;0.70;;;;;;;27.13;41.34;101518.97;5024940;28;20041;-53
2022/08/22 11:47:13;;;;;;;1.17;0.52;;;;;;;27.16;41.41;101515.81;5008909;28;20510;-46
2022/08/22 11:49:57;;;;;;;1.13;0.50;;;;;;;27.09;41.39;101485.78;5008924;28;20352;-47
2022/08/22 11:52:42;;;;;;;2.10;1.10;;;;;;;27.30;41.54;101520.22;5029536;28;20497;-45
2022/08/22 11:55:17;;;;;;;1.60;0.70;;;;;;;27.24;41.51;101492.94;5003041;28;20046;-46
2022/08/22 11:57:48;;;;;;;1.23;0.82;;;;;;;27.36;41.43;101504.91;5026387;28;20030;-46
2022/08/22 12:00:17;;;;;;;1.85;0.82;;;;;;;27.31;41.02;101486.41;5008865;28;20037;-46
2022/08/22 12:03:11;;;;;;;0.93;0.60;;;;;;;27.48;41.28;101510.56;5031956;28;20029;-47
2022/08/22 12:06:18;;;;;;;2.53;1.02;;;;;;;27.48;40.92;101502.34;5028483;28;20085;-44
2022/08/22 12:08:48;;;;;;;1.88;1.00;;;;;;;27.51;40.87;101504.69;5027464;28;20036;-50
2022/08/22 12:11:24;;;;;;;1.70;0.95;;;;;;;27.40;40.85;101478.84;5031808;28;20025;-48
2022/08/22 12:14:16;;;;;;;1.95;1.25;;;;;;;27.52;40.68;101514.53;5016174;28;20038;-48
2022/08/22 12:16:53;;;;;;;1.25;0.60;;;;;;;27.49;40.97;101515.81;4992267;28;20063;-47
2022/08/22 12:19:26;;;;;;;2.13;1.02;;;;;;;27.52;40.72;101514.53;5008976;28;20026;-48
2022/08/22 12:22:12;;;;;;;1.58;0.80;;;;;;;27.51;40.79;101502.78;5015785;28;20025;-44